sensor_id;sensor_type;location;lat;lon;timestamp;pressure;altitude;pressure_sealevel;temperature;humidity
8890;BME280;4481;43.406;24.454;2022-12-29T00:01:40;79066.22;;;-144.09;100.00
8890;BME280;4481;43.406;24.454;2022-12-29T00:04:07;79070.41;;;-144.09;100.00
8890;BME280;4481;43.406;24.454;2022-12-29T00:06:35;79068.31;;;-144.09;100.00
8890;BME280;4481;43.406;24.454;2022-12-29T00:09:01;79055.78;;;-144.09;100.00
8890;BME280;4481;43.406;24.454;2022-12-29T00:11:27;79051.59;;;-144.09;100.00
8890;BME280;4481;43.406;24.454;2022-12-29T00:13:53;79036.97;;;-144.09;100.00
8890;BME280;4481;43.406;24.454;2022-12-29T00:16:41;79034.88;;;-144.09;100.00
8890;BME280;4481;43.406;24.454;2022-12-29T00:19:07;79055.78;;;-144.09;100.00
8890;BME280;4481;43.406;24.454;2022-12-29T00:21:53;79055.78;;;-144.09;100.00
8890;BME280;4481;43.406;24.454;2022-12-29T00:24:38;79059.97;;;-144.09;100.00
8890;BME280;4481;43.406;24.454;2022-12-29T00:27:22;79045.31;;;-144.09;100.00
8890;BME280;4481;43.406;24.454;2022-12-29T00:30:09;79043.22;;;-144.09;100.00
8890;BME280;4481;43.406;24.454;2022-12-29T00:32:54;79036.97;;;-144.09;100.00
8890;BME280;4481;43.406;24.454;2022-12-29T00:35:41;79055.78;;;-144.09;100.00
8890;BME280;4481;43.406;24.454;2022-12-29T00:38:10;79053.69;;;-144.09;100.00
8890;BME280;4481;43.406;24.454;2022-12-29T00:40:55;79059.97;;;-144.09;100.00
8890;BME280;4481;43.406;24.454;2022-12-29T00:43:40;79059.97;;;-144.09;100.00
8890;BME280;4481;43.406;24.454;2022-12-29T00:46:24;79047.41;;;-144.09;100.00
8890;BME280;4481;43.406;24.454;2022-12-29T00:48:51;79024.41;;;-144.09;100.00
8890;BME280;4481;43.406;24.454;2022-12-29T00:51:35;79011.88;;;-144.09;100.00
8890;BME280;4481;43.406;24.454;2022-12-29T00:54:01;79001.41;;;-144.09;100.00
8890;BME280;4481;43.406;24.454;2022-12-29T00:56:28;79005.59;;;-144.09;100.00
8890;BME280;4481;43.406;24.454;2022-12-29T00:58:54;79009.78;;;-144.09;100.00
8890;BME280;4481;43.406;24.454;2022-12-29T01:01:20;79016.06;;;-144.09;100.00
8890;BME280;4481;43.406;24.454;2022-12-29T01:03:46;78997.22;;;-144.09;100.00
8890;BME280;4481;43.406;24.454;2022-12-29T01:06:13;79003.50;;;-144.09;100.00
8890;BME280;4481;43.406;24.454;2022-12-29T01:08:39;78995.13;;;-144.09;100.00
8890;BME280;4481;43.406;24.454;2022-12-29T01:11:07;78986.78;;;-144.09;100.00
8890;BME280;4481;43.406;24.454;2022-12-29T01:13:33;78980.50;;;-144.09;100.00
8890;BME280;4481;43.406;24.454;2022-12-29T01:15:59;78972.13;;;-144.09;100.00
8890;BME280;4481;43.406;24.454;2022-12-29T01:18:26;78974.22;;;-144.09;100.00
8890;BME280;4481;43.406;24.454;2022-12-29T01:20:58;78961.69;;;-144.09;100.00
8890;BME280;4481;43.406;24.454;2022-12-29T01:23:25;78970.03;;;-144.09;100.00
8890;BME280;4481;43.406;24.454;2022-12-29T01:25:51;78955.41;;;-144.09;100.00
8890;BME280;4481;43.406;24.454;2022-12-29T01:28:17;78924.03;;;-144.09;100.00
8890;BME280;4481;43.406;24.454;2022-12-29T01:30:43;78928.22;;;-144.09;100.00
8890;BME280;4481;43.406;24.454;2022-12-29T01:33:09;78947.03;;;-144.09;100.00
8890;BME280;4481;43.406;24.454;2022-12-29T01:35:35;78947.03;;;-144.09;100.00
8890;BME280;4481;43.406;24.454;2022-12-29T01:38:02;78938.69;;;-144.09;100.00
8890;BME280;4481;43.406;24.454;2022-12-29T01:40:28;78936.59;;;-144.09;100.00
8890;BME280;4481;43.406;24.454;2022-12-29T01:42:54;78928.22;;;-144.09;100.00
8890;BME280;4481;43.406;24.454;2022-12-29T01:45:21;78921.94;;;-144.09;100.00
8890;BME280;4481;43.406;24.454;2022-12-29T01:47:49;78911.50;;;-144.09;100.00
8890;BME280;4481;43.406;24.454;2022-12-29T01:50:20;78901.03;;;-144.09;100.00
8890;BME280;4481;43.406;24.454;2022-12-29T01:52:51;78892.69;;;-144.09;100.00
8890;BME280;4481;43.406;24.454;2022-12-29T01:55:20;78884.31;;;-144.09;100.00
8890;BME280;4481;43.406;24.454;2022-12-29T01:57:50;78873.84;;;-144.09;100.00
8890;BME280;4481;43.406;24.454;2022-12-29T02:00:19;78852.94;;;-144.09;100.00
8890;BME280;4481;43.406;24.454;2022-12-29T02:02:47;78861.31;;;-144.09;100.00
8890;BME280;4481;43.406;24.454;2022-12-29T02:05:19;78855.03;;;-144.09;100.00
8890;BME280;4481;43.406;24.454;2022-12-29T02:07:48;78869.69;;;-144.09;100.00
8890;BME280;4481;43.406;24.454;2022-12-29T02:10:16;78863.41;;;-144.09;100.00
8890;BME280;4481;43.406;24.454;2022-12-29T02:12:44;78852.94;;;-144.09;100.00
8890;BME280;4481;43.406;24.454;2022-12-29T02:15:11;78871.78;;;-144.09;100.00
8890;BME280;4481;43.406;24.454;2022-12-29T02:17:47;78878.03;;;-144.09;100.00
8890;BME280;4481;43.406;24.454;2022-12-29T02:20:53;78882.22;;;-144.09;100.00
8890;BME280;4481;43.406;24.454;2022-12-29T02:23:35;78880.13;;;-144.09;100.00
8890;BME280;4481;43.406;24.454;2022-12-29T02:26:24;78888.50;;;-144.09;100.00
8890;BME280;4481;43.406;24.454;2022-12-29T02:31:58;78898.94;;;-144.09;100.00
8890;BME280;4481;43.406;24.454;2022-12-29T02:34:34;78913.59;;;-144.09;100.00
8890;BME280;4481;43.406;24.454;2022-12-29T02:37:09;78917.78;;;-144.09;100.00
8890;BME280;4481;43.406;24.454;2022-12-29T02:39:40;78915.69;;;-144.09;100.00
8890;BME280;4481;43.406;24.454;2022-12-29T02:42:13;78921.94;;;-144.09;100.00
8890;BME280;4481;43.406;24.454;2022-12-29T02:44:53;78905.22;;;-144.09;100.00
8890;BME280;4481;43.406;24.454;2022-12-29T02:47:25;78924.03;;;-144.09;100.00
8890;BME280;4481;43.406;24.454;2022-12-29T02:49:57;78903.13;;;-144.09;100.00
8890;BME280;4481;43.406;24.454;2022-12-29T02:52:31;78919.84;;;-144.09;100.00
8890;BME280;4481;43.406;24.454;2022-12-29T02:54:58;78936.59;;;-144.09;100.00
8890;BME280;4481;43.406;24.454;2022-12-29T02:57:33;78944.94;;;-144.09;100.00
8890;BME280;4481;43.406;24.454;2022-12-29T03:00:03;78921.94;;;-144.09;100.00
8890;BME280;4481;43.406;24.454;2022-12-29T03:02:50;78961.69;;;-144.09;100.00
8890;BME280;4481;43.406;24.454;2022-12-29T03:05:51;78988.88;;;-144.09;100.00
8890;BME280;4481;43.406;24.454;2022-12-29T03:08:26;78995.13;;;-144.09;100.00
8890;BME280;4481;43.406;24.454;2022-12-29T03:10:59;78995.13;;;-144.09;100.00
8890;BME280;4481;43.406;24.454;2022-12-29T03:13:32;79005.59;;;-144.09;100.00
8890;BME280;4481;43.406;24.454;2022-12-29T03:16:22;79028.59;;;-144.09;100.00
8890;BME280;4481;43.406;24.454;2022-12-29T03:18:57;79036.97;;;-144.09;100.00
8890;BME280;4481;43.406;24.454;2022-12-29T03:21:32;79047.41;;;-144.09;100.00
8890;BME280;4481;43.406;24.454;2022-12-29T03:24:17;79070.41;;;-144.09;100.00
8890;BME280;4481;43.406;24.454;2022-12-29T03:26:46;79082.97;;;-144.09;100.00
8890;BME280;4481;43.406;24.454;2022-12-29T03:29:15;79074.59;;;-144.09;100.00
8890;BME280;4481;43.406;24.454;2022-12-29T03:31:44;79068.31;;;-144.09;100.00
8890;BME280;4481;43.406;24.454;2022-12-29T03:34:13;79089.22;;;-144.09;100.00
8890;BME280;4481;43.406;24.454;2022-12-29T03:36:45;79091.31;;;-144.09;100.00
8890;BME280;4481;43.406;24.454;2022-12-29T03:39:13;79097.59;;;-144.09;100.00
8890;BME280;4481;43.406;24.454;2022-12-29T03:41:41;79105.97;;;-144.09;100.00
8890;BME280;4481;43.406;24.454;2022-12-29T03:44:08;79105.97;;;-144.09;100.00
8890;BME280;4481;43.406;24.454;2022-12-29T03:46:34;79101.78;;;-144.09;100.00
8890;BME280;4481;43.406;24.454;2022-12-29T03:49:01;79101.78;;;-144.09;100.00
8890;BME280;4481;43.406;24.454;2022-12-29T03:51:27;79118.50;;;-144.09;100.00
8890;BME280;4481;43.406;24.454;2022-12-29T03:53:54;79105.97;;;-144.09;100.00
8890;BME280;4481;43.406;24.454;2022-12-29T03:56:20;79126.88;;;-144.09;100.00
8890;BME280;4481;43.406;24.454;2022-12-29T03:58:46;79156.16;;;-144.09;100.00
8890;BME280;4481;43.406;24.454;2022-12-29T04:01:12;79154.06;;;-144.09;100.00
8890;BME280;4481;43.406;24.454;2022-12-29T04:03:38;79170.78;;;-144.09;100.00
8890;BME280;4481;43.406;24.454;2022-12-29T04:06:04;79174.97;;;-144.09;100.00
8890;BME280;4481;43.406;24.454;2022-12-29T04:08:31;79166.59;;;-144.09;100.00
8890;BME280;4481;43.406;24.454;2022-12-29T04:10:57;79200.06;;;-144.09;100.00
8890;BME280;4481;43.406;24.454;2022-12-29T04:13:23;79212.63;;;-144.09;100.00
8890;BME280;4481;43.406;24.454;2022-12-29T04:15:49;79225.16;;;-144.09;100.00
8890;BME280;4481;43.406;24.454;2022-12-29T04:18:16;79210.53;;;-144.09;100.00
8890;BME280;4481;43.406;24.454;2022-12-29T04:20:42;79223.06;;;-144.09;100.00
8890;BME280;4481;43.406;24.454;2022-12-29T04:23:30;79231.44;;;-144.09;100.00
8890;BME280;4481;43.406;24.454;2022-12-29T04:25:57;79241.88;;;-144.09;100.00
8890;BME280;4481;43.406;24.454;2022-12-29T04:28:24;79241.88;;;-144.09;100.00
8890;BME280;4481;43.406;24.454;2022-12-29T04:30:50;79233.53;;;-144.09;100.00
8890;BME280;4481;43.406;24.454;2022-12-29T04:33:16;79252.34;;;-144.09;100.00
8890;BME280;4481;43.406;24.454;2022-12-29T04:35:43;79262.81;;;-144.09;100.00
8890;BME280;4481;43.406;24.454;2022-12-29T04:38:09;79254.44;;;-144.09;100.00
8890;BME280;4481;43.406;24.454;2022-12-29T04:40:37;79264.88;;;-144.09;100.00
8890;BME280;4481;43.406;24.454;2022-12-29T04:43:05;79266.97;;;-144.09;100.00
8890;BME280;4481;43.406;24.454;2022-12-29T04:45:31;79271.16;;;-144.09;100.00
8890;BME280;4481;43.406;24.454;2022-12-29T04:47:57;79266.97;;;-144.09;100.00
8890;BME280;4481;43.406;24.454;2022-12-29T04:50:23;79283.72;;;-144.09;100.00
8890;BME280;4481;43.406;24.454;2022-12-29T04:52:49;79292.06;;;-144.09;100.00
8890;BME280;4481;43.406;24.454;2022-12-29T04:55:15;79304.63;;;-144.09;100.00
8890;BME280;4481;43.406;24.454;2022-12-29T04:57:41;79319.25;;;-144.09;100.00
8890;BME280;4481;43.406;24.454;2022-12-29T05:00:09;79327.63;;;-144.09;100.00
8890;BME280;4481;43.406;24.454;2022-12-29T05:02:36;79338.09;;;-144.09;100.00
8890;BME280;4481;43.406;24.454;2022-12-29T05:05:03;79344.34;;;-144.09;100.00
8890;BME280;4481;43.406;24.454;2022-12-29T05:07:29;79350.63;;;-144.09;100.00
8890;BME280;4481;43.406;24.454;2022-12-29T05:09:55;79329.72;;;-144.09;100.00
8890;BME280;4481;43.406;24.454;2022-12-29T05:12:21;79285.81;;;-144.09;100.00
8890;BME280;4481;43.406;24.454;2022-12-29T05:14:47;79285.81;;;-144.09;100.00
8890;BME280;4481;43.406;24.454;2022-12-29T05:20:36;79315.09;;;-144.09;100.00
8890;BME280;4481;43.406;24.454;2022-12-29T05:23:02;79310.91;;;-144.09;100.00
8890;BME280;4481;43.406;24.454;2022-12-29T05:25:28;79338.09;;;-144.09;100.00
8890;BME280;4481;43.406;24.454;2022-12-29T05:27:54;79319.25;;;-144.09;100.00
8890;BME280;4481;43.406;24.454;2022-12-29T05:30:20;79329.72;;;-144.09;100.00
8890;BME280;4481;43.406;24.454;2022-12-29T05:32:47;79344.34;;;-144.09;100.00
8890;BME280;4481;43.406;24.454;2022-12-29T05:35:13;79346.44;;;-144.09;100.00
8890;BME280;4481;43.406;24.454;2022-12-29T05:37:40;79352.72;;;-144.09;100.00
8890;BME280;4481;43.406;24.454;2022-12-29T05:40:07;79359.00;;;-144.09;100.00
8890;BME280;4481;43.406;24.454;2022-12-29T05:42:33;79350.63;;;-144.09;100.00
8890;BME280;4481;43.406;24.454;2022-12-29T05:44:59;79365.28;;;-144.09;100.00
8890;BME280;4481;43.406;24.454;2022-12-29T05:47:26;79371.53;;;-144.09;100.00
8890;BME280;4481;43.406;24.454;2022-12-29T05:49:52;79365.28;;;-144.09;100.00
8890;BME280;4481;43.406;24.454;2022-12-29T05:52:46;79392.47;;;-144.09;100.00
8890;BME280;4481;43.406;24.454;2022-12-29T05:55:12;79428.00;;;-144.09;100.00
8890;BME280;4481;43.406;24.454;2022-12-29T05:57:39;79451.00;;;-144.09;100.00
8890;BME280;4481;43.406;24.454;2022-12-29T06:00:06;79457.28;;;-144.09;100.00
8890;BME280;4481;43.406;24.454;2022-12-29T06:02:33;79453.09;;;-144.09;100.00
8890;BME280;4481;43.406;24.454;2022-12-29T06:04:59;79465.66;;;-144.09;100.00
8890;BME280;4481;43.406;24.454;2022-12-29T06:07:25;79438.47;;;-144.09;100.00
8890;BME280;4481;43.406;24.454;2022-12-29T06:09:52;79413.38;;;-144.09;100.00
8890;BME280;4481;43.406;24.454;2022-12-29T06:12:18;79421.75;;;-144.09;100.00
8890;BME280;4481;43.406;24.454;2022-12-29T06:14:44;79428.00;;;-144.09;100.00
8890;BME280;4481;43.406;24.454;2022-12-29T06:17:10;79432.19;;;-144.09;100.00
8890;BME280;4481;43.406;24.454;2022-12-29T06:19:36;79425.91;;;-144.09;100.00
8890;BME280;4481;43.406;24.454;2022-12-29T06:22:03;79417.56;;;-144.09;100.00
8890;BME280;4481;43.406;24.454;2022-12-29T06:24:30;79411.28;;;-144.09;100.00
8890;BME280;4481;43.406;24.454;2022-12-29T06:26:57;79417.56;;;-144.09;100.00
8890;BME280;4481;43.406;24.454;2022-12-29T06:29:23;79419.66;;;-144.09;100.00
8890;BME280;4481;43.406;24.454;2022-12-29T06:31:49;79419.66;;;-144.09;100.00
8890;BME280;4481;43.406;24.454;2022-12-29T06:34:16;79413.38;;;-144.09;100.00
8890;BME280;4481;43.406;24.454;2022-12-29T06:36:42;79402.91;;;-144.09;100.00
8890;BME280;4481;43.406;24.454;2022-12-29T06:39:10;79411.28;;;-144.09;100.00
8890;BME280;4481;43.406;24.454;2022-12-29T06:41:36;79409.19;;;-144.09;100.00
8890;BME280;4481;43.406;24.454;2022-12-29T06:44:03;79417.56;;;-144.09;100.00
8890;BME280;4481;43.406;24.454;2022-12-29T06:46:29;79411.28;;;-144.09;100.00
8890;BME280;4481;43.406;24.454;2022-12-29T06:48:55;79394.56;;;-144.09;100.00
8890;BME280;4481;43.406;24.454;2022-12-29T06:51:21;79392.47;;;-144.09;100.00
8890;BME280;4481;43.406;24.454;2022-12-29T06:53:47;79369.44;;;-144.09;100.00
8890;BME280;4481;43.406;24.454;2022-12-29T06:56:13;79375.72;;;-144.09;100.00
8890;BME280;4481;43.406;24.454;2022-12-29T06:58:39;79369.44;;;-144.09;100.00
8890;BME280;4481;43.406;24.454;2022-12-29T07:01:06;79363.19;;;-144.09;100.00
8890;BME280;4481;43.406;24.454;2022-12-29T07:03:33;79342.28;;;-144.09;100.00
8890;BME280;4481;43.406;24.454;2022-12-29T07:05:59;79329.72;;;-144.09;100.00
8890;BME280;4481;43.406;24.454;2022-12-29T07:08:25;79317.16;;;-144.09;100.00
8890;BME280;4481;43.406;24.454;2022-12-29T07:10:51;79331.81;;;-144.09;100.00
8890;BME280;4481;43.406;24.454;2022-12-29T07:13:17;79329.72;;;-144.09;100.00
8890;BME280;4481;43.406;24.454;2022-12-29T07:15:44;79317.16;;;-144.09;100.00
8890;BME280;4481;43.406;24.454;2022-12-29T07:18:10;79302.53;;;-144.09;100.00
8890;BME280;4481;43.406;24.454;2022-12-29T07:20:37;79287.91;;;-144.09;100.00
8890;BME280;4481;43.406;24.454;2022-12-29T07:23:03;79271.16;;;-144.09;100.00
8890;BME280;4481;43.406;24.454;2022-12-29T07:25:29;79269.06;;;-144.09;100.00
8890;BME280;4481;43.406;24.454;2022-12-29T07:27:55;79243.97;;;-144.09;100.00
8890;BME280;4481;43.406;24.454;2022-12-29T07:30:22;79231.44;;;-144.09;100.00
8890;BME280;4481;43.406;24.454;2022-12-29T07:32:48;79212.63;;;-144.09;100.00
8890;BME280;4481;43.406;24.454;2022-12-29T07:35:15;79218.88;;;-144.09;100.00
8890;BME280;4481;43.406;24.454;2022-12-29T07:37:41;79206.34;;;-144.09;100.00
8890;BME280;4481;43.406;24.454;2022-12-29T07:40:09;79191.69;;;-144.09;100.00
8890;BME280;4481;43.406;24.454;2022-12-29T07:42:35;79177.06;;;-144.09;100.00
8890;BME280;4481;43.406;24.454;2022-12-29T07:45:01;79170.78;;;-144.09;100.00
8890;BME280;4481;43.406;24.454;2022-12-29T07:47:28;79156.16;;;-144.09;100.00
8890;BME280;4481;43.406;24.454;2022-12-29T07:49:54;79139.44;;;-144.09;100.00
8890;BME280;4481;43.406;24.454;2022-12-29T07:52:21;79131.06;;;-144.09;100.00
8890;BME280;4481;43.406;24.454;2022-12-29T07:54:47;79118.50;;;-144.09;100.00
8890;BME280;4481;43.406;24.454;2022-12-29T07:57:13;79099.69;;;-144.09;100.00
8890;BME280;4481;43.406;24.454;2022-12-29T07:59:39;79095.50;;;-144.09;100.00
8890;BME280;4481;43.406;24.454;2022-12-29T08:02:08;79078.78;;;-144.09;100.00
8890;BME280;4481;43.406;24.454;2022-12-29T08:04:35;79072.50;;;-144.09;100.00
8890;BME280;4481;43.406;24.454;2022-12-29T08:07:01;79057.88;;;-144.09;100.00
8890;BME280;4481;43.406;24.454;2022-12-29T08:09:28;79064.13;;;-144.09;100.00
8890;BME280;4481;43.406;24.454;2022-12-29T08:11:54;79045.31;;;-144.09;100.00
8890;BME280;4481;43.406;24.454;2022-12-29T08:14:20;79059.97;;;-144.09;100.00
8890;BME280;4481;43.406;24.454;2022-12-29T08:16:46;79043.22;;;-144.09;100.00
8890;BME280;4481;43.406;24.454;2022-12-29T08:19:13;79030.69;;;-144.09;100.00
8890;BME280;4481;43.406;24.454;2022-12-29T08:21:39;79018.13;;;-144.09;100.00
8890;BME280;4481;43.406;24.454;2022-12-29T08:24:05;79022.31;;;-144.09;100.00
8890;BME280;4481;43.406;24.454;2022-12-29T08:26:32;79007.69;;;-144.09;100.00
8890;BME280;4481;43.406;24.454;2022-12-29T08:28:58;78980.50;;;-144.09;100.00
8890;BME280;4481;43.406;24.454;2022-12-29T08:31:25;78967.94;;;-144.09;100.00
8890;BME280;4481;43.406;24.454;2022-12-29T08:33:51;78967.94;;;-144.09;100.00
8890;BME280;4481;43.406;24.454;2022-12-29T08:36:17;78940.78;;;-144.09;100.00
8890;BME280;4481;43.406;24.454;2022-12-29T08:38:43;78921.94;;;-144.09;100.00
8890;BME280;4481;43.406;24.454;2022-12-29T08:41:09;78934.50;;;-144.09;100.00
8890;BME280;4481;43.406;24.454;2022-12-29T08:43:36;78928.22;;;-144.09;100.00
8890;BME280;4481;43.406;24.454;2022-12-29T08:46:02;78930.31;;;-144.09;100.00
8890;BME280;4481;43.406;24.454;2022-12-29T08:48:28;78924.03;;;-144.09;100.00
8890;BME280;4481;43.406;24.454;2022-12-29T08:50:55;78951.22;;;-144.09;100.00
8890;BME280;4481;43.406;24.454;2022-12-29T08:53:21;78944.94;;;-144.09;100.00
8890;BME280;4481;43.406;24.454;2022-12-29T08:55:54;78924.03;;;-144.09;100.00
8890;BME280;4481;43.406;24.454;2022-12-29T08:58:20;78921.94;;;-144.09;100.00
8890;BME280;4481;43.406;24.454;2022-12-29T09:00:47;78907.31;;;-144.09;100.00
8890;BME280;4481;43.406;24.454;2022-12-29T09:03:13;78888.50;;;-144.09;100.00
8890;BME280;4481;43.406;24.454;2022-12-29T09:05:39;78855.03;;;-144.09;100.00
8890;BME280;4481;43.406;24.454;2022-12-29T09:08:05;78838.31;;;-144.09;100.00
8890;BME280;4481;43.406;24.454;2022-12-29T09:10:31;78817.41;;;-144.09;100.00
8890;BME280;4481;43.406;24.454;2022-12-29T09:12:57;78794.41;;;-144.09;100.00
8890;BME280;4481;43.406;24.454;2022-12-29T09:15:23;78788.13;;;-144.09;100.00
8890;BME280;4481;43.406;24.454;2022-12-29T09:17:50;78771.41;;;-144.09;100.00
8890;BME280;4481;43.406;24.454;2022-12-29T09:20:18;78758.84;;;-144.09;100.00
8890;BME280;4481;43.406;24.454;2022-12-29T09:22:45;78756.78;;;-144.09;100.00
8890;BME280;4481;43.406;24.454;2022-12-29T09:25:12;78746.31;;;-144.09;100.00
8890;BME280;4481;43.406;24.454;2022-12-29T09:27:38;78717.03;;;-144.09;100.00
8890;BME280;4481;43.406;24.454;2022-12-29T09:30:06;78704.50;;;-144.09;100.00
8890;BME280;4481;43.406;24.454;2022-12-29T09:32:33;78700.31;;;-144.09;100.00
8890;BME280;4481;43.406;24.454;2022-12-29T09:35:00;78710.78;;;-144.09;100.00
8890;BME280;4481;43.406;24.454;2022-12-29T09:37:26;78694.03;;;-144.09;100.00
8890;BME280;4481;43.406;24.454;2022-12-29T09:39:53;78683.59;;;-144.09;100.00
8890;BME280;4481;43.406;24.454;2022-12-29T09:42:23;78658.50;;;-144.09;99.74
8890;BME280;4481;43.406;24.454;2022-12-29T09:45:00;78641.78;;;-144.09;99.57
8890;BME280;4481;43.406;24.454;2022-12-29T09:47:30;78635.50;;;-144.09;98.37
8890;BME280;4481;43.406;24.454;2022-12-29T09:50:01;78631.31;;;-144.09;98.55
8890;BME280;4481;43.406;24.454;2022-12-29T09:52:31;78614.59;;;-144.09;97.59
8890;BME280;4481;43.406;24.454;2022-12-29T09:55:02;78604.13;;;-144.09;97.27
8890;BME280;4481;43.406;24.454;2022-12-29T09:57:33;78599.94;;;-144.09;97.24
8890;BME280;4481;43.406;24.454;2022-12-29T10:00:03;78589.50;;;-144.09;97.23
8890;BME280;4481;43.406;24.454;2022-12-29T10:02:36;78570.69;;;-144.09;96.33
8890;BME280;4481;43.406;24.454;2022-12-29T10:05:08;78560.22;;;-144.09;96.41
8890;BME280;4481;43.406;24.454;2022-12-29T10:07:43;78543.50;;;-144.09;96.22
8890;BME280;4481;43.406;24.454;2022-12-29T10:10:22;78537.22;;;-144.09;95.89
8890;BME280;4481;43.406;24.454;2022-12-29T10:13:01;78537.22;;;-144.09;96.05
8890;BME280;4481;43.406;24.454;2022-12-29T10:15:49;78526.78;;;-144.09;95.31
8890;BME280;4481;43.406;24.454;2022-12-29T10:21:28;78487.06;;;-144.09;95.36
8890;BME280;4481;43.406;24.454;2022-12-29T10:23:59;78478.69;;;-144.09;95.30
8890;BME280;4481;43.406;24.454;2022-12-29T10:26:31;78468.25;;;-144.09;95.16
8890;BME280;4481;43.406;24.454;2022-12-29T10:29:03;78459.88;;;-144.09;95.12
8890;BME280;4481;43.406;24.454;2022-12-29T10:31:33;78505.88;;;-144.09;95.26
8890;BME280;4481;43.406;24.454;2022-12-29T10:34:05;78497.50;;;-144.09;95.91
8890;BME280;4481;43.406;24.454;2022-12-29T10:36:37;78482.88;;;-144.09;94.94
8890;BME280;4481;43.406;24.454;2022-12-29T10:39:10;78512.13;;;-144.09;95.90
8890;BME280;4481;43.406;24.454;2022-12-29T10:41:45;78487.06;;;-144.09;95.75
8890;BME280;4481;43.406;24.454;2022-12-29T10:44:16;78474.50;;;-144.09;95.10
8890;BME280;4481;43.406;24.454;2022-12-29T10:46:44;78449.41;;;-144.09;93.60
8890;BME280;4481;43.406;24.454;2022-12-29T10:49:17;78430.59;;;-144.09;92.93
8890;BME280;4481;43.406;24.454;2022-12-29T10:51:46;78409.69;;;-144.09;93.04
8890;BME280;4481;43.406;24.454;2022-12-29T10:54:18;78399.25;;;-144.09;92.92
8890;BME280;4481;43.406;24.454;2022-12-29T10:56:47;78399.25;;;-144.09;92.83
8890;BME280;4481;43.406;24.454;2022-12-29T10:59:19;78388.78;;;-144.09;92.68
8890;BME280;4481;43.406;24.454;2022-12-29T11:01:58;78365.78;;;-144.09;92.63
8890;BME280;4481;43.406;24.454;2022-12-29T11:04:39;78353.25;;;-144.09;91.94
8890;BME280;4481;43.406;24.454;2022-12-29T11:07:10;78344.88;;;-144.09;91.58
8890;BME280;4481;43.406;24.454;2022-12-29T11:09:39;78334.44;;;-144.09;90.74
8890;BME280;4481;43.406;24.454;2022-12-29T11:12:23;78340.69;;;-144.09;90.70
8890;BME280;4481;43.406;24.454;2022-12-29T11:15:02;78328.16;;;-144.09;90.99
8890;BME280;4481;43.406;24.454;2022-12-29T11:17:43;78309.34;;;-144.09;90.78
8890;BME280;4481;43.406;24.454;2022-12-29T11:20:26;78323.97;;;-144.09;91.25
8890;BME280;4481;43.406;24.454;2022-12-29T11:22:54;78317.72;;;-144.09;91.17
8890;BME280;4481;43.406;24.454;2022-12-29T11:25:20;78294.72;;;-144.09;91.09
8890;BME280;4481;43.406;24.454;2022-12-29T11:27:55;78284.25;;;-144.09;91.25
8890;BME280;4481;43.406;24.454;2022-12-29T11:30:23;78282.16;;;-144.09;91.42
8890;BME280;4481;43.406;24.454;2022-12-29T11:32:50;78273.81;;;-144.09;91.84
8890;BME280;4481;43.406;24.454;2022-12-29T11:35:30;78303.06;;;-144.09;92.31
8890;BME280;4481;43.406;24.454;2022-12-29T11:37:58;78282.16;;;-144.09;91.79
8890;BME280;4481;43.406;24.454;2022-12-29T11:40:24;78263.34;;;-144.09;91.75
8890;BME280;4481;43.406;24.454;2022-12-29T11:42:52;78263.34;;;-144.09;91.14
8890;BME280;4481;43.406;24.454;2022-12-29T11:45:21;78252.91;;;-144.09;91.32
8890;BME280;4481;43.406;24.454;2022-12-29T11:47:50;78265.44;;;-144.09;91.19
8890;BME280;4481;43.406;24.454;2022-12-29T11:50:20;78246.63;;;-144.09;91.04
8890;BME280;4481;43.406;24.454;2022-12-29T11:52:48;78259.16;;;-144.09;91.50
8890;BME280;4481;43.406;24.454;2022-12-29T11:55:21;78255.00;;;-144.09;91.55
8890;BME280;4481;43.406;24.454;2022-12-29T11:57:50;78244.53;;;-144.09;91.00
8890;BME280;4481;43.406;24.454;2022-12-29T12:00:20;78234.09;;;-144.09;91.05
8890;BME280;4481;43.406;24.454;2022-12-29T12:02:52;78219.44;;;-144.09;91.04
8890;BME280;4481;43.406;24.454;2022-12-29T12:05:23;78211.09;;;-144.09;90.58
8890;BME280;4481;43.406;24.454;2022-12-29T12:07:55;78200.63;;;-144.09;90.15
8890;BME280;4481;43.406;24.454;2022-12-29T12:10:28;78232.00;;;-144.09;90.63
8890;BME280;4481;43.406;24.454;2022-12-29T12:13:02;78213.19;;;-144.09;90.38
8890;BME280;4481;43.406;24.454;2022-12-29T12:15:35;78202.72;;;-144.09;90.05
8890;BME280;4481;43.406;24.454;2022-12-29T12:18:08;78194.34;;;-144.09;89.26
8890;BME280;4481;43.406;24.454;2022-12-29T12:20:43;78198.53;;;-144.09;89.01
8890;BME280;4481;43.406;24.454;2022-12-29T12:23:22;78196.44;;;-144.09;89.35
8890;BME280;4481;43.406;24.454;2022-12-29T12:25:57;78232.00;;;-144.09;90.38
8890;BME280;4481;43.406;24.454;2022-12-29T12:28:32;78238.25;;;-144.09;90.93
8890;BME280;4481;43.406;24.454;2022-12-29T12:31:01;78221.53;;;-144.09;90.79
8890;BME280;4481;43.406;24.454;2022-12-29T12:33:33;78206.91;;;-144.09;90.75
8890;BME280;4481;43.406;24.454;2022-12-29T12:36:25;78190.19;;;-144.09;89.59
8890;BME280;4481;43.406;24.454;2022-12-29T12:38:59;78192.28;;;-144.09;89.81
8890;BME280;4481;43.406;24.454;2022-12-29T12:41:35;78196.44;;;-144.09;89.80
8890;BME280;4481;43.406;24.454;2022-12-29T12:44:09;78179.72;;;-144.09;89.25
8890;BME280;4481;43.406;24.454;2022-12-29T12:47:15;78188.09;;;-144.09;89.66
8890;BME280;4481;43.406;24.454;2022-12-29T12:53:19;78165.09;;;-144.09;88.67
8890;BME280;4481;43.406;24.454;2022-12-29T12:56:00;78169.28;;;-144.09;88.88
8890;BME280;4481;43.406;24.454;2022-12-29T12:58:34;78179.72;;;-144.09;89.01
8890;BME280;4481;43.406;24.454;2022-12-29T13:01:14;78165.09;;;-144.09;89.02
8890;BME280;4481;43.406;24.454;2022-12-29T13:03:59;78167.19;;;-144.09;88.99
8890;BME280;4481;43.406;24.454;2022-12-29T13:06:37;78154.63;;;-144.09;88.47
8890;BME280;4481;43.406;24.454;2022-12-29T13:09:29;78142.09;;;-144.09;88.18
8890;BME280;4481;43.406;24.454;2022-12-29T13:12:06;78148.38;;;-144.09;88.51